Green Mountain, North Carolina
Current Conditions -  °F | °C
As of 4:55 AM on Monday 22 Dec 2014 (Local Time) from K0A9 Reporting Station
Broken Clouds Broken Clouds  
Wind Chill: 39°   Ceiling: 8000
Heat Index: 43°   Visibility: 10mi
Dew Point: 36°   Wind: 6mph
Humidity: 76%   Direction: 70°ENE
Pressure: 30.04"   Gusts: NA
Location:  35.955°N, 82.2044°W
Report Text: K0A9 220955Z AUTO 07005KT 10SM SCT050 BKN080 06/02 A3004 RMK
Loading
Personal Weather Stations






























Interactive Weather Map New forecast layout! Learn more

10-Day Weather Forecast

Advertisements
Track Severe Weather on mobile